sensor_id;sensor_type;location;lat;lon;timestamp;P1;durP1;ratioP1;P2;durP2;ratioP2
3700;SDS011;1866;48.374;10.766;2022-07-22T00:01:23;98.10;;;6.70;;
3700;SDS011;1866;48.374;10.766;2022-07-22T00:03:51;97.50;;;6.70;;
3700;SDS011;1866;48.374;10.766;2022-07-22T00:06:19;98.50;;;7.40;;
3700;SDS011;1866;48.374;10.766;2022-07-22T00:08:46;98.77;;;7.10;;
3700;SDS011;1866;48.374;10.766;2022-07-22T00:11:13;100.70;;;7.00;;
3700;SDS011;1866;48.374;10.766;2022-07-22T00:13:42;101.60;;;8.53;;
3700;SDS011;1866;48.374;10.766;2022-07-22T00:16:11;102.73;;;7.67;;
3700;SDS011;1866;48.374;10.766;2022-07-22T00:18:38;100.60;;;7.90;;
3700;SDS011;1866;48.374;10.766;2022-07-22T00:21:05;100.90;;;7.83;;
3700;SDS011;1866;48.374;10.766;2022-07-22T00:23:33;98.67;;;7.13;;
3700;SDS011;1866;48.374;10.766;2022-07-22T00:26:00;100.67;;;8.03;;
3700;SDS011;1866;48.374;10.766;2022-07-22T00:28:27;102.37;;;7.97;;
3700;SDS011;1866;48.374;10.766;2022-07-22T00:30:56;99.90;;;7.30;;
3700;SDS011;1866;48.374;10.766;2022-07-22T00:33:23;101.30;;;7.40;;
3700;SDS011;1866;48.374;10.766;2022-07-22T00:35:51;100.23;;;8.17;;
3700;SDS011;1866;48.374;10.766;2022-07-22T00:38:18;100.63;;;8.53;;
3700;SDS011;1866;48.374;10.766;2022-07-22T00:40:45;110.20;;;7.90;;
3700;SDS011;1866;48.374;10.766;2022-07-22T00:43:12;99.07;;;6.90;;
3700;SDS011;1866;48.374;10.766;2022-07-22T00:45:39;101.57;;;8.37;;
3700;SDS011;1866;48.374;10.766;2022-07-22T00:48:07;99.80;;;7.60;;
3700;SDS011;1866;48.374;10.766;2022-07-22T00:50:34;100.10;;;8.07;;
3700;SDS011;1866;48.374;10.766;2022-07-22T00:53:01;101.10;;;8.33;;
3700;SDS011;1866;48.374;10.766;2022-07-22T00:55:28;98.90;;;7.47;;
3700;SDS011;1866;48.374;10.766;2022-07-22T00:57:55;100.80;;;7.93;;
3700;SDS011;1866;48.374;10.766;2022-07-22T01:00:22;99.70;;;7.27;;
3700;SDS011;1866;48.374;10.766;2022-07-22T01:02:49;101.37;;;8.50;;
3700;SDS011;1866;48.374;10.766;2022-07-22T01:05:18;104.67;;;8.43;;
3700;SDS011;1866;48.374;10.766;2022-07-22T01:07:45;98.73;;;7.03;;
3700;SDS011;1866;48.374;10.766;2022-07-22T01:10:12;102.73;;;7.90;;
3700;SDS011;1866;48.374;10.766;2022-07-22T01:12:40;103.47;;;7.70;;
3700;SDS011;1866;48.374;10.766;2022-07-22T01:15:07;102.37;;;8.40;;
3700;SDS011;1866;48.374;10.766;2022-07-22T01:17:35;126.93;;;8.40;;
3700;SDS011;1866;48.374;10.766;2022-07-22T01:20:04;101.60;;;8.20;;
3700;SDS011;1866;48.374;10.766;2022-07-22T01:22:31;105.20;;;8.57;;
3700;SDS011;1866;48.374;10.766;2022-07-22T01:24:58;99.87;;;7.77;;
3700;SDS011;1866;48.374;10.766;2022-07-22T01:27:25;100.47;;;7.03;;
3700;SDS011;1866;48.374;10.766;2022-07-22T01:29:53;98.53;;;7.20;;
3700;SDS011;1866;48.374;10.766;2022-07-22T01:32:20;102.07;;;8.00;;
3700;SDS011;1866;48.374;10.766;2022-07-22T01:34:46;99.00;;;7.17;;
3700;SDS011;1866;48.374;10.766;2022-07-22T01:37:15;103.00;;;8.00;;
3700;SDS011;1866;48.374;10.766;2022-07-22T01:39:42;102.17;;;8.27;;
3700;SDS011;1866;48.374;10.766;2022-07-22T01:42:09;102.27;;;8.03;;
3700;SDS011;1866;48.374;10.766;2022-07-22T01:44:36;100.07;;;7.80;;
3700;SDS011;1866;48.374;10.766;2022-07-22T01:47:03;100.17;;;7.87;;
3700;SDS011;1866;48.374;10.766;2022-07-22T01:49:30;99.10;;;7.83;;
3700;SDS011;1866;48.374;10.766;2022-07-22T01:51:58;100.50;;;7.70;;
3700;SDS011;1866;48.374;10.766;2022-07-22T01:54:26;100.07;;;7.30;;
3700;SDS011;1866;48.374;10.766;2022-07-22T01:56:55;101.57;;;8.50;;
3700;SDS011;1866;48.374;10.766;2022-07-22T01:59:21;102.07;;;7.67;;
3700;SDS011;1866;48.374;10.766;2022-07-22T02:01:48;104.70;;;8.40;;
3700;SDS011;1866;48.374;10.766;2022-07-22T02:04:15;99.90;;;7.13;;
3700;SDS011;1866;48.374;10.766;2022-07-22T02:06:42;117.80;;;7.90;;
3700;SDS011;1866;48.374;10.766;2022-07-22T02:09:09;99.37;;;7.70;;
3700;SDS011;1866;48.374;10.766;2022-07-22T02:11:38;100.60;;;7.40;;
3700;SDS011;1866;48.374;10.766;2022-07-22T02:14:05;103.60;;;9.30;;
3700;SDS011;1866;48.374;10.766;2022-07-22T02:16:32;102.90;;;7.90;;
3700;SDS011;1866;48.374;10.766;2022-07-22T02:18:59;105.10;;;8.63;;
3700;SDS011;1866;48.374;10.766;2022-07-22T02:21:26;100.57;;;8.67;;
3700;SDS011;1866;48.374;10.766;2022-07-22T02:23:53;100.43;;;8.07;;
3700;SDS011;1866;48.374;10.766;2022-07-22T02:26:20;102.97;;;7.83;;
3700;SDS011;1866;48.374;10.766;2022-07-22T02:28:48;99.33;;;7.63;;
3700;SDS011;1866;48.374;10.766;2022-07-22T02:31:15;99.27;;;7.50;;
3700;SDS011;1866;48.374;10.766;2022-07-22T02:33:42;107.30;;;8.20;;
3700;SDS011;1866;48.374;10.766;2022-07-22T02:36:09;101.17;;;7.47;;
3700;SDS011;1866;48.374;10.766;2022-07-22T02:38:36;101.30;;;7.37;;
3700;SDS011;1866;48.374;10.766;2022-07-22T02:41:03;100.63;;;6.90;;
3700;SDS011;1866;48.374;10.766;2022-07-22T02:43:30;105.00;;;8.97;;
3700;SDS011;1866;48.374;10.766;2022-07-22T02:45:59;100.53;;;8.13;;
3700;SDS011;1866;48.374;10.766;2022-07-22T02:48:28;100.60;;;8.13;;
3700;SDS011;1866;48.374;10.766;2022-07-22T02:50:55;106.10;;;8.43;;
3700;SDS011;1866;48.374;10.766;2022-07-22T02:53:22;103.30;;;8.03;;
3700;SDS011;1866;48.374;10.766;2022-07-22T02:55:49;101.03;;;8.60;;
3700;SDS011;1866;48.374;10.766;2022-07-22T02:58:16;101.30;;;8.60;;
3700;SDS011;1866;48.374;10.766;2022-07-22T03:00:43;100.27;;;7.50;;
3700;SDS011;1866;48.374;10.766;2022-07-22T03:03:12;102.20;;;8.07;;
3700;SDS011;1866;48.374;10.766;2022-07-22T03:05:39;102.77;;;8.27;;
3700;SDS011;1866;48.374;10.766;2022-07-22T03:08:06;106.70;;;9.17;;
3700;SDS011;1866;48.374;10.766;2022-07-22T03:10:33;100.90;;;8.60;;
3700;SDS011;1866;48.374;10.766;2022-07-22T03:13:01;100.50;;;7.70;;
3700;SDS011;1866;48.374;10.766;2022-07-22T03:15:27;101.20;;;7.63;;
3700;SDS011;1866;48.374;10.766;2022-07-22T03:17:55;102.87;;;7.30;;
3700;SDS011;1866;48.374;10.766;2022-07-22T03:20:23;100.90;;;7.63;;
3700;SDS011;1866;48.374;10.766;2022-07-22T03:22:50;101.10;;;7.43;;
3700;SDS011;1866;48.374;10.766;2022-07-22T03:25:17;103.10;;;7.63;;
3700;SDS011;1866;48.374;10.766;2022-07-22T03:27:44;100.80;;;8.37;;
3700;SDS011;1866;48.374;10.766;2022-07-22T03:30:11;100.30;;;7.37;;
3700;SDS011;1866;48.374;10.766;2022-07-22T03:32:39;101.40;;;7.37;;
3700;SDS011;1866;48.374;10.766;2022-07-22T03:35:09;107.20;;;9.03;;
3700;SDS011;1866;48.374;10.766;2022-07-22T03:37:38;99.27;;;7.33;;
3700;SDS011;1866;48.374;10.766;2022-07-22T03:40:05;103.00;;;8.03;;
3700;SDS011;1866;48.374;10.766;2022-07-22T03:42:33;104.60;;;7.47;;
3700;SDS011;1866;48.374;10.766;2022-07-22T03:45:00;101.87;;;8.43;;
3700;SDS011;1866;48.374;10.766;2022-07-22T03:47:27;105.80;;;7.70;;
3700;SDS011;1866;48.374;10.766;2022-07-22T03:49:54;102.17;;;7.50;;
3700;SDS011;1866;48.374;10.766;2022-07-22T03:52:23;103.03;;;7.73;;
3700;SDS011;1866;48.374;10.766;2022-07-22T03:54:51;167.10;;;8.70;;
3700;SDS011;1866;48.374;10.766;2022-07-22T03:57:18;100.37;;;7.73;;
3700;SDS011;1866;48.374;10.766;2022-07-22T03:59:45;101.77;;;7.10;;
3700;SDS011;1866;48.374;10.766;2022-07-22T04:02:12;104.20;;;8.47;;
3700;SDS011;1866;48.374;10.766;2022-07-22T04:04:40;102.60;;;7.90;;
3700;SDS011;1866;48.374;10.766;2022-07-22T04:07:06;104.37;;;9.07;;
3700;SDS011;1866;48.374;10.766;2022-07-22T04:09:33;100.77;;;8.03;;
3700;SDS011;1866;48.374;10.766;2022-07-22T04:12:02;109.90;;;8.87;;
3700;SDS011;1866;48.374;10.766;2022-07-22T04:14:29;101.17;;;8.53;;
3700;SDS011;1866;48.374;10.766;2022-07-22T04:16:56;102.50;;;7.53;;
3700;SDS011;1866;48.374;10.766;2022-07-22T04:19:23;105.63;;;8.90;;
3700;SDS011;1866;48.374;10.766;2022-07-22T04:21:50;103.00;;;8.47;;
3700;SDS011;1866;48.374;10.766;2022-07-22T04:24:17;102.33;;;6.70;;
3700;SDS011;1866;48.374;10.766;2022-07-22T04:26:44;103.73;;;8.50;;
3700;SDS011;1866;48.374;10.766;2022-07-22T04:29:12;102.83;;;7.20;;
3700;SDS011;1866;48.374;10.766;2022-07-22T04:31:41;100.80;;;7.50;;
3700;SDS011;1866;48.374;10.766;2022-07-22T04:34:08;103.30;;;7.77;;
3700;SDS011;1866;48.374;10.766;2022-07-22T04:36:35;101.17;;;7.33;;
3700;SDS011;1866;48.374;10.766;2022-07-22T04:39:03;101.70;;;7.63;;
3700;SDS011;1866;48.374;10.766;2022-07-22T04:41:32;99.90;;;6.97;;
3700;SDS011;1866;48.374;10.766;2022-07-22T04:43:59;99.70;;;6.80;;
3700;SDS011;1866;48.374;10.766;2022-07-22T04:46:31;98.93;;;7.00;;
3700;SDS011;1866;48.374;10.766;2022-07-22T04:48:58;98.27;;;5.93;;
3700;SDS011;1866;48.374;10.766;2022-07-22T04:51:25;96.60;;;6.87;;
3700;SDS011;1866;48.374;10.766;2022-07-22T04:53:52;106.33;;;7.63;;
3700;SDS011;1866;48.374;10.766;2022-07-22T04:56:20;103.30;;;6.37;;
3700;SDS011;1866;48.374;10.766;2022-07-22T04:58:48;96.40;;;6.50;;
3700;SDS011;1866;48.374;10.766;2022-07-22T05:01:16;97.67;;;6.70;;
3700;SDS011;1866;48.374;10.766;2022-07-22T05:03:45;95.77;;;6.33;;
3700;SDS011;1866;48.374;10.766;2022-07-22T05:06:12;106.50;;;8.00;;
3700;SDS011;1866;48.374;10.766;2022-07-22T05:08:40;97.07;;;6.60;;
3700;SDS011;1866;48.374;10.766;2022-07-22T05:11:07;96.97;;;7.00;;
3700;SDS011;1866;48.374;10.766;2022-07-22T05:13:35;99.97;;;7.50;;
3700;SDS011;1866;48.374;10.766;2022-07-22T05:16:02;103.50;;;8.20;;
3700;SDS011;1866;48.374;10.766;2022-07-22T05:18:30;98.00;;;7.23;;
3700;SDS011;1866;48.374;10.766;2022-07-22T05:20:59;100.30;;;8.20;;
3700;SDS011;1866;48.374;10.766;2022-07-22T05:23:26;104.10;;;7.57;;
3700;SDS011;1866;48.374;10.766;2022-07-22T05:25:53;100.90;;;8.47;;
3700;SDS011;1866;48.374;10.766;2022-07-22T05:28:20;102.17;;;8.80;;
3700;SDS011;1866;48.374;10.766;2022-07-22T05:30:47;100.30;;;7.80;;
3700;SDS011;1866;48.374;10.766;2022-07-22T05:33:14;100.70;;;8.37;;
3700;SDS011;1866;48.374;10.766;2022-07-22T05:35:41;106.10;;;8.83;;
3700;SDS011;1866;48.374;10.766;2022-07-22T05:38:09;101.60;;;8.23;;
3700;SDS011;1866;48.374;10.766;2022-07-22T05:40:36;100.40;;;8.37;;
3700;SDS011;1866;48.374;10.766;2022-07-22T05:43:04;101.40;;;8.10;;
3700;SDS011;1866;48.374;10.766;2022-07-22T05:45:31;102.00;;;8.30;;
3700;SDS011;1866;48.374;10.766;2022-07-22T05:47:58;99.47;;;8.47;;
3700;SDS011;1866;48.374;10.766;2022-07-22T05:50:26;98.97;;;8.07;;
3700;SDS011;1866;48.374;10.766;2022-07-22T05:52:53;101.27;;;9.70;;
3700;SDS011;1866;48.374;10.766;2022-07-22T05:55:21;106.63;;;8.77;;
3700;SDS011;1866;48.374;10.766;2022-07-22T05:57:50;102.50;;;9.47;;
3700;SDS011;1866;48.374;10.766;2022-07-22T06:00:17;102.87;;;9.00;;
3700;SDS011;1866;48.374;10.766;2022-07-22T06:02:44;102.53;;;9.03;;
3700;SDS011;1866;48.374;10.766;2022-07-22T06:05:11;108.73;;;11.07;;
3700;SDS011;1866;48.374;10.766;2022-07-22T06:07:38;100.53;;;8.90;;
3700;SDS011;1866;48.374;10.766;2022-07-22T06:10:05;102.27;;;10.00;;
3700;SDS011;1866;48.374;10.766;2022-07-22T06:12:34;104.97;;;9.37;;
3700;SDS011;1866;48.374;10.766;2022-07-22T06:15:02;107.83;;;11.00;;
3700;SDS011;1866;48.374;10.766;2022-07-22T06:17:29;101.27;;;9.30;;
3700;SDS011;1866;48.374;10.766;2022-07-22T06:19:59;107.87;;;10.13;;
3700;SDS011;1866;48.374;10.766;2022-07-22T06:22:27;108.00;;;11.73;;
3700;SDS011;1866;48.374;10.766;2022-07-22T06:24:54;106.90;;;10.40;;
3700;SDS011;1866;48.374;10.766;2022-07-22T06:27:22;106.57;;;11.40;;
3700;SDS011;1866;48.374;10.766;2022-07-22T06:29:50;108.67;;;11.90;;
3700;SDS011;1866;48.374;10.766;2022-07-22T06:32:17;101.17;;;9.30;;
3700;SDS011;1866;48.374;10.766;2022-07-22T06:34:44;103.87;;;10.63;;
3700;SDS011;1866;48.374;10.766;2022-07-22T06:37:11;105.77;;;9.70;;
3700;SDS011;1866;48.374;10.766;2022-07-22T06:39:38;111.03;;;10.60;;
3700;SDS011;1866;48.374;10.766;2022-07-22T06:42:05;104.80;;;10.03;;
3700;SDS011;1866;48.374;10.766;2022-07-22T06:44:32;104.10;;;10.27;;
3700;SDS011;1866;48.374;10.766;2022-07-22T06:47:00;106.03;;;9.57;;
3700;SDS011;1866;48.374;10.766;2022-07-22T06:49:28;102.17;;;10.07;;
3700;SDS011;1866;48.374;10.766;2022-07-22T06:51:55;104.20;;;9.37;;
3700;SDS011;1866;48.374;10.766;2022-07-22T06:54:21;105.20;;;9.60;;
3700;SDS011;1866;48.374;10.766;2022-07-22T06:56:48;103.97;;;9.37;;
3700;SDS011;1866;48.374;10.766;2022-07-22T06:59:15;102.27;;;9.80;;
3700;SDS011;1866;48.374;10.766;2022-07-22T07:01:42;101.73;;;9.20;;
3700;SDS011;1866;48.374;10.766;2022-07-22T07:04:11;103.57;;;9.40;;
3700;SDS011;1866;48.374;10.766;2022-07-22T07:06:38;100.70;;;8.20;;
3700;SDS011;1866;48.374;10.766;2022-07-22T07:09:04;98.27;;;7.93;;
3700;SDS011;1866;48.374;10.766;2022-07-22T07:11:32;100.63;;;8.83;;
3700;SDS011;1866;48.374;10.766;2022-07-22T07:13:59;102.80;;;9.33;;
3700;SDS011;1866;48.374;10.766;2022-07-22T07:16:26;105.37;;;9.40;;
3700;SDS011;1866;48.374;10.766;2022-07-22T07:18:53;101.20;;;8.87;;
3700;SDS011;1866;48.374;10.766;2022-07-22T07:21:22;103.17;;;8.87;;
3700;SDS011;1866;48.374;10.766;2022-07-22T07:23:49;100.43;;;8.20;;
3700;SDS011;1866;48.374;10.766;2022-07-22T07:26:16;102.93;;;8.57;;
3700;SDS011;1866;48.374;10.766;2022-07-22T07:28:43;100.57;;;8.20;;
3700;SDS011;1866;48.374;10.766;2022-07-22T07:31:12;105.90;;;10.57;;
3700;SDS011;1866;48.374;10.766;2022-07-22T07:33:39;103.17;;;9.47;;
3700;SDS011;1866;48.374;10.766;2022-07-22T07:36:06;98.77;;;7.30;;
3700;SDS011;1866;48.374;10.766;2022-07-22T07:45:10;102.67;;;8.27;;
3700;SDS011;1866;48.374;10.766;2022-07-22T07:47:37;98.30;;;8.40;;
3700;SDS011;1866;48.374;10.766;2022-07-22T07:50:05;99.07;;;7.57;;
3700;SDS011;1866;48.374;10.766;2022-07-22T07:52:36;100.77;;;8.00;;
3700;SDS011;1866;48.374;10.766;2022-07-22T07:55:04;99.40;;;8.77;;
3700;SDS011;1866;48.374;10.766;2022-07-22T07:57:31;98.90;;;7.07;;
3700;SDS011;1866;48.374;10.766;2022-07-22T07:59:59;100.70;;;7.20;;
3700;SDS011;1866;48.374;10.766;2022-07-22T08:02:27;99.13;;;7.60;;
3700;SDS011;1866;48.374;10.766;2022-07-22T08:04:54;101.77;;;7.70;;
3700;SDS011;1866;48.374;10.766;2022-07-22T08:07:22;102.10;;;8.53;;
3700;SDS011;1866;48.374;10.766;2022-07-22T08:09:49;100.30;;;8.43;;
3700;SDS011;1866;48.374;10.766;2022-07-22T08:12:15;100.80;;;8.27;;
3700;SDS011;1866;48.374;10.766;2022-07-22T08:14:42;102.10;;;8.80;;
3700;SDS011;1866;48.374;10.766;2022-07-22T08:17:09;102.23;;;9.17;;
3700;SDS011;1866;48.374;10.766;2022-07-22T08:19:37;101.20;;;8.33;;
3700;SDS011;1866;48.374;10.766;2022-07-22T08:22:04;98.33;;;7.80;;
3700;SDS011;1866;48.374;10.766;2022-07-22T08:24:31;98.83;;;8.37;;
3700;SDS011;1866;48.374;10.766;2022-07-22T08:26:58;99.07;;;8.50;;
3700;SDS011;1866;48.374;10.766;2022-07-22T08:29:25;101.97;;;8.20;;
3700;SDS011;1866;48.374;10.766;2022-07-22T08:31:52;100.27;;;8.83;;
3700;SDS011;1866;48.374;10.766;2022-07-22T08:34:19;101.20;;;7.30;;
3700;SDS011;1866;48.374;10.766;2022-07-22T08:36:48;101.70;;;7.63;;
3700;SDS011;1866;48.374;10.766;2022-07-22T08:39:15;99.80;;;7.80;;
3700;SDS011;1866;48.374;10.766;2022-07-22T08:41:43;98.47;;;7.73;;
3700;SDS011;1866;48.374;10.766;2022-07-22T08:44:10;98.97;;;8.30;;
3700;SDS011;1866;48.374;10.766;2022-07-22T08:46:37;102.57;;;7.80;;
3700;SDS011;1866;48.374;10.766;2022-07-22T08:49:04;98.27;;;7.90;;
3700;SDS011;1866;48.374;10.766;2022-07-22T08:51:31;104.03;;;8.10;;
3700;SDS011;1866;48.374;10.766;2022-07-22T08:54:00;97.30;;;7.20;;
3700;SDS011;1866;48.374;10.766;2022-07-22T08:56:27;97.63;;;6.27;;
3700;SDS011;1866;48.374;10.766;2022-07-22T08:58:54;100.03;;;6.87;;
3700;SDS011;1866;48.374;10.766;2022-07-22T09:01:21;96.80;;;6.97;;
3700;SDS011;1866;48.374;10.766;2022-07-22T09:03:48;101.03;;;6.70;;
3700;SDS011;1866;48.374;10.766;2022-07-22T09:06:17;97.53;;;7.93;;
3700;SDS011;1866;48.374;10.766;2022-07-22T09:08:52;97.43;;;7.20;;
3700;SDS011;1866;48.374;10.766;2022-07-22T09:11:22;95.63;;;6.50;;
3700;SDS011;1866;48.374;10.766;2022-07-22T09:13:50;104.53;;;7.63;;
3700;SDS011;1866;48.374;10.766;2022-07-22T09:19:04;100.10;;;7.07;;
3700;SDS011;1866;48.374;10.766;2022-07-22T09:21:32;96.40;;;6.90;;
3700;SDS011;1866;48.374;10.766;2022-07-22T09:24:02;94.70;;;7.20;;
3700;SDS011;1866;48.374;10.766;2022-07-22T09:26:31;95.67;;;6.03;;
3700;SDS011;1866;48.374;10.766;2022-07-22T09:28:59;95.47;;;6.33;;
3700;SDS011;1866;48.374;10.766;2022-07-22T09:31:28;95.77;;;6.43;;
3700;SDS011;1866;48.374;10.766;2022-07-22T09:33:58;108.27;;;7.73;;
3700;SDS011;1866;48.374;10.766;2022-07-22T09:36:26;96.17;;;7.07;;
3700;SDS011;1866;48.374;10.766;2022-07-22T09:38:53;97.00;;;6.77;;
3700;SDS011;1866;48.374;10.766;2022-07-22T09:41:22;100.20;;;7.57;;
3700;SDS011;1866;48.374;10.766;2022-07-22T09:43:51;94.23;;;6.10;;
3700;SDS011;1866;48.374;10.766;2022-07-22T09:46:32;93.87;;;5.77;;
3700;SDS011;1866;48.374;10.766;2022-07-22T09:49:02;99.70;;;6.37;;
3700;SDS011;1866;48.374;10.766;2022-07-22T09:51:31;94.33;;;6.80;;
3700;SDS011;1866;48.374;10.766;2022-07-22T09:54:00;93.03;;;5.83;;
3700;SDS011;1866;48.374;10.766;2022-07-22T09:56:30;96.03;;;5.73;;
3700;SDS011;1866;48.374;10.766;2022-07-22T09:58:59;98.93;;;7.30;;
3700;SDS011;1866;48.374;10.766;2022-07-22T10:01:26;96.77;;;6.77;;
3700;SDS011;1866;48.374;10.766;2022-07-22T10:03:56;95.17;;;6.43;;
3700;SDS011;1866;48.374;10.766;2022-07-22T10:06:25;93.67;;;6.00;;
3700;SDS011;1866;48.374;10.766;2022-07-22T10:08:53;96.90;;;7.53;;
3700;SDS011;1866;48.374;10.766;2022-07-22T10:11:21;95.20;;;6.50;;
3700;SDS011;1866;48.374;10.766;2022-07-22T10:13:49;92.37;;;5.83;;
3700;SDS011;1866;48.374;10.766;2022-07-22T10:16:19;95.07;;;6.53;;
3700;SDS011;1866;48.374;10.766;2022-07-22T10:18:46;96.90;;;7.00;;
3700;SDS011;1866;48.374;10.766;2022-07-22T10:21:14;95.30;;;6.37;;
3700;SDS011;1866;48.374;10.766;2022-07-22T10:29:23;92.70;;;5.30;;
3700;SDS011;1866;48.374;10.766;2022-07-22T10:37:54;94.37;;;6.63;;
3700;SDS011;1866;48.374;10.766;2022-07-22T10:40:23;96.97;;;6.87;;
3700;SDS011;1866;48.374;10.766;2022-07-22T10:45:41;93.27;;;5.77;;
3700;SDS011;1866;48.374;10.766;2022-07-22T10:48:13;93.77;;;5.67;;
3700;SDS011;1866;48.374;10.766;2022-07-22T10:50:53;96.87;;;5.97;;
3700;SDS011;1866;48.374;10.766;2022-07-22T10:53:44;92.90;;;4.90;;
3700;SDS011;1866;48.374;10.766;2022-07-22T10:56:17;97.50;;;6.30;;
3700;SDS011;1866;48.374;10.766;2022-07-22T10:58:50;91.53;;;5.70;;
3700;SDS011;1866;48.374;10.766;2022-07-22T11:01:20;93.70;;;5.40;;
3700;SDS011;1866;48.374;10.766;2022-07-22T11:03:51;92.20;;;4.73;;
3700;SDS011;1866;48.374;10.766;2022-07-22T11:06:19;91.77;;;4.63;;
3700;SDS011;1866;48.374;10.766;2022-07-22T11:08:49;90.60;;;5.27;;
3700;SDS011;1866;48.374;10.766;2022-07-22T11:11:30;91.20;;;4.70;;
3700;SDS011;1866;48.374;10.766;2022-07-22T11:14:03;92.70;;;4.77;;
3700;SDS011;1866;48.374;10.766;2022-07-22T11:16:37;91.87;;;5.50;;
3700;SDS011;1866;48.374;10.766;2022-07-22T11:19:06;89.67;;;4.50;;
3700;SDS011;1866;48.374;10.766;2022-07-22T11:21:33;97.73;;;5.70;;
3700;SDS011;1866;48.374;10.766;2022-07-22T11:24:02;90.27;;;4.97;;
3700;SDS011;1866;48.374;10.766;2022-07-22T11:26:33;90.47;;;5.17;;
3700;SDS011;1866;48.374;10.766;2022-07-22T11:29:05;88.10;;;4.20;;
3700;SDS011;1866;48.374;10.766;2022-07-22T11:31:32;92.70;;;5.47;;
3700;SDS011;1866;48.374;10.766;2022-07-22T11:34:07;89.37;;;4.90;;
3700;SDS011;1866;48.374;10.766;2022-07-22T11:36:35;89.70;;;5.63;;
3700;SDS011;1866;48.374;10.766;2022-07-22T11:39:04;92.30;;;5.97;;
3700;SDS011;1866;48.374;10.766;2022-07-22T11:41:31;93.30;;;4.80;;
3700;SDS011;1866;48.374;10.766;2022-07-22T11:43:59;91.10;;;4.80;;
3700;SDS011;1866;48.374;10.766;2022-07-22T11:46:26;90.67;;;5.07;;
3700;SDS011;1866;48.374;10.766;2022-07-22T11:48:54;90.87;;;5.33;;
3700;SDS011;1866;48.374;10.766;2022-07-22T11:51:28;90.67;;;5.20;;
3700;SDS011;1866;48.374;10.766;2022-07-22T11:53:57;93.00;;;5.20;;
3700;SDS011;1866;48.374;10.766;2022-07-22T11:56:24;94.10;;;4.67;;
3700;SDS011;1866;48.374;10.766;2022-07-22T11:58:53;89.50;;;4.97;;
3700;SDS011;1866;48.374;10.766;2022-07-22T12:01:21;90.90;;;5.10;;
3700;SDS011;1866;48.374;10.766;2022-07-22T12:03:49;91.00;;;5.60;;
3700;SDS011;1866;48.374;10.766;2022-07-22T12:06:18;89.27;;;5.00;;
3700;SDS011;1866;48.374;10.766;2022-07-22T12:08:50;93.07;;;5.47;;
3700;SDS011;1866;48.374;10.766;2022-07-22T12:11:18;89.33;;;4.73;;
3700;SDS011;1866;48.374;10.766;2022-07-22T12:13:49;93.00;;;4.60;;
3700;SDS011;1866;48.374;10.766;2022-07-22T12:16:21;94.70;;;5.27;;
3700;SDS011;1866;48.374;10.766;2022-07-22T12:18:55;91.80;;;5.23;;
3700;SDS011;1866;48.374;10.766;2022-07-22T12:21:23;90.47;;;4.67;;
3700;SDS011;1866;48.374;10.766;2022-07-22T12:23:53;90.87;;;5.33;;
3700;SDS011;1866;48.374;10.766;2022-07-22T12:26:41;91.77;;;5.33;;
3700;SDS011;1866;48.374;10.766;2022-07-22T12:29:17;90.07;;;5.00;;
3700;SDS011;1866;48.374;10.766;2022-07-22T12:31:46;89.10;;;5.13;;
3700;SDS011;1866;48.374;10.766;2022-07-22T12:34:15;90.47;;;5.27;;
3700;SDS011;1866;48.374;10.766;2022-07-22T12:36:45;92.13;;;4.60;;
3700;SDS011;1866;48.374;10.766;2022-07-22T12:39:16;91.47;;;5.70;;
3700;SDS011;1866;48.374;10.766;2022-07-22T12:41:48;88.80;;;5.10;;
3700;SDS011;1866;48.374;10.766;2022-07-22T12:44:20;89.63;;;4.20;;
3700;SDS011;1866;48.374;10.766;2022-07-22T12:46:49;88.57;;;4.80;;
3700;SDS011;1866;48.374;10.766;2022-07-22T12:49:20;91.80;;;4.60;;
3700;SDS011;1866;48.374;10.766;2022-07-22T12:52:09;90.00;;;4.90;;
3700;SDS011;1866;48.374;10.766;2022-07-22T12:57:31;89.20;;;5.23;;
3700;SDS011;1866;48.374;10.766;2022-07-22T12:59:59;90.47;;;5.03;;
3700;SDS011;1866;48.374;10.766;2022-07-22T13:02:26;88.10;;;5.10;;
3700;SDS011;1866;48.374;10.766;2022-07-22T13:04:54;89.40;;;4.73;;
3700;SDS011;1866;48.374;10.766;2022-07-22T13:07:21;91.27;;;5.40;;
3700;SDS011;1866;48.374;10.766;2022-07-22T13:09:48;90.47;;;5.90;;
3700;SDS011;1866;48.374;10.766;2022-07-22T13:12:17;88.17;;;4.53;;
3700;SDS011;1866;48.374;10.766;2022-07-22T13:14:44;89.90;;;4.47;;
3700;SDS011;1866;48.374;10.766;2022-07-22T13:17:11;92.67;;;5.10;;
3700;SDS011;1866;48.374;10.766;2022-07-22T13:19:38;88.87;;;5.77;;
3700;SDS011;1866;48.374;10.766;2022-07-22T13:22:05;91.50;;;5.20;;
3700;SDS011;1866;48.374;10.766;2022-07-22T13:24:38;89.43;;;4.90;;
3700;SDS011;1866;48.374;10.766;2022-07-22T13:27:32;91.40;;;4.93;;
3700;SDS011;1866;48.374;10.766;2022-07-22T13:29:59;88.47;;;4.50;;
3700;SDS011;1866;48.374;10.766;2022-07-22T13:32:26;87.13;;;3.90;;
3700;SDS011;1866;48.374;10.766;2022-07-22T13:34:53;87.07;;;3.87;;
3700;SDS011;1866;48.374;10.766;2022-07-22T13:37:20;88.17;;;4.40;;
3700;SDS011;1866;48.374;10.766;2022-07-22T13:39:48;88.07;;;4.30;;
3700;SDS011;1866;48.374;10.766;2022-07-22T13:42:15;88.83;;;4.23;;
3700;SDS011;1866;48.374;10.766;2022-07-22T13:44:44;87.13;;;4.30;;
3700;SDS011;1866;48.374;10.766;2022-07-22T13:47:12;87.43;;;4.13;;
3700;SDS011;1866;48.374;10.766;2022-07-22T13:49:39;86.60;;;4.17;;
3700;SDS011;1866;48.374;10.766;2022-07-22T13:52:06;93.43;;;5.47;;
3700;SDS011;1866;48.374;10.766;2022-07-22T13:54:33;87.90;;;4.20;;
3700;SDS011;1866;48.374;10.766;2022-07-22T13:57:01;88.77;;;4.53;;
3700;SDS011;1866;48.374;10.766;2022-07-22T13:59:30;91.17;;;5.23;;
3700;SDS011;1866;48.374;10.766;2022-07-22T14:02:00;88.27;;;4.60;;
3700;SDS011;1866;48.374;10.766;2022-07-22T14:04:28;88.07;;;5.13;;
3700;SDS011;1866;48.374;10.766;2022-07-22T14:06:55;88.27;;;4.47;;
3700;SDS011;1866;48.374;10.766;2022-07-22T14:09:23;89.37;;;4.53;;
3700;SDS011;1866;48.374;10.766;2022-07-22T14:11:50;89.50;;;4.87;;
3700;SDS011;1866;48.374;10.766;2022-07-22T14:14:33;90.00;;;4.33;;
3700;SDS011;1866;48.374;10.766;2022-07-22T14:17:00;89.80;;;4.53;;
3700;SDS011;1866;48.374;10.766;2022-07-22T14:19:28;90.40;;;4.50;;
3700;SDS011;1866;48.374;10.766;2022-07-22T14:21:55;88.40;;;4.23;;
3700;SDS011;1866;48.374;10.766;2022-07-22T14:24:22;88.00;;;4.13;;
3700;SDS011;1866;48.374;10.766;2022-07-22T14:26:50;89.70;;;4.80;;
3700;SDS011;1866;48.374;10.766;2022-07-22T14:29:17;87.30;;;3.90;;
3700;SDS011;1866;48.374;10.766;2022-07-22T14:31:49;88.83;;;4.20;;
3700;SDS011;1866;48.374;10.766;2022-07-22T14:34:16;98.43;;;5.37;;
3700;SDS011;1866;48.374;10.766;2022-07-22T14:36:43;88.63;;;4.63;;
3700;SDS011;1866;48.374;10.766;2022-07-22T14:39:10;88.30;;;4.23;;
3700;SDS011;1866;48.374;10.766;2022-07-22T14:41:37;88.40;;;4.27;;
3700;SDS011;1866;48.374;10.766;2022-07-22T14:44:05;88.07;;;4.43;;
3700;SDS011;1866;48.374;10.766;2022-07-22T14:46:33;87.90;;;4.40;;
3700;SDS011;1866;48.374;10.766;2022-07-22T14:49:02;91.00;;;4.63;;
3700;SDS011;1866;48.374;10.766;2022-07-22T14:51:29;90.13;;;4.33;;
3700;SDS011;1866;48.374;10.766;2022-07-22T14:53:57;89.97;;;4.50;;
3700;SDS011;1866;48.374;10.766;2022-07-22T14:56:25;88.10;;;4.40;;
3700;SDS011;1866;48.374;10.766;2022-07-22T14:58:52;89.03;;;4.17;;
3700;SDS011;1866;48.374;10.766;2022-07-22T15:01:19;87.00;;;3.60;;
3700;SDS011;1866;48.374;10.766;2022-07-22T15:03:46;88.00;;;4.13;;
3700;SDS011;1866;48.374;10.766;2022-07-22T15:06:14;89.57;;;4.73;;
3700;SDS011;1866;48.374;10.766;2022-07-22T15:08:41;86.67;;;4.00;;
3700;SDS011;1866;48.374;10.766;2022-07-22T15:11:08;88.13;;;3.80;;
3700;SDS011;1866;48.374;10.766;2022-07-22T15:13:35;94.63;;;5.00;;